Terminal Aerodrome Forecast
Issued by NWS

Home | Current Version | Previous Version | Text Only | Print | Product List | Glossary On
Versions: 1 2 3 4 5 6 7 8 9 10 11 12 13 14 15 16 17 18 19 20 21 22 23 24 25 26 27 28 29 30 31 32 33 34 35 36 37 38 39 40
868
FTUS43 KGLD 191132
TAFMCK
TAF
KMCK 191132Z 1912/2012 35019KT P6SM OVC015
     FM191900 04011KT P6SM BKN025
     FM200400 04013G21KT P6SM VCSH OVC020
     FM200900 36012KT P6SM OVC015
     FM201000 35013G21KT P6SM OVC020=

USA.gov is the U.S. government's official web portal to all federal, state and local government web resources and services.